sensor_id;sensor_type;location;lat;lon;timestamp;temperature;humidity
40151;DHT22;25866;52.420;10.640;2022-11-24T00:01:07;4.00;99.90
40151;DHT22;25866;52.420;10.640;2022-11-24T00:03:33;4.00;99.90
40151;DHT22;25866;52.420;10.640;2022-11-24T00:06:10;4.00;99.90
40151;DHT22;25866;52.420;10.640;2022-11-24T00:08:37;4.20;99.90
40151;DHT22;25866;52.420;10.640;2022-11-24T00:11:12;4.20;99.90
40151;DHT22;25866;52.420;10.640;2022-11-24T00:13:38;4.30;99.90
40151;DHT22;25866;52.420;10.640;2022-11-24T00:18:34;4.20;99.90
40151;DHT22;25866;52.420;10.640;2022-11-24T00:21:00;4.20;99.90
40151;DHT22;25866;52.420;10.640;2022-11-24T00:23:26;4.20;99.90
40151;DHT22;25866;52.420;10.640;2022-11-24T00:25:51;4.20;99.90
40151;DHT22;25866;52.420;10.640;2022-11-24T00:28:17;4.20;99.90
40151;DHT22;25866;52.420;10.640;2022-11-24T00:30:43;4.20;99.90
40151;DHT22;25866;52.420;10.640;2022-11-24T00:33:08;4.30;99.90
40151;DHT22;25866;52.420;10.640;2022-11-24T00:35:34;4.30;99.90
40151;DHT22;25866;52.420;10.640;2022-11-24T00:38:00;4.40;99.90
40151;DHT22;25866;52.420;10.640;2022-11-24T00:40:26;4.50;99.90
40151;DHT22;25866;52.420;10.640;2022-11-24T00:42:51;4.50;99.90
40151;DHT22;25866;52.420;10.640;2022-11-24T00:45:17;4.50;99.90
40151;DHT22;25866;52.420;10.640;2022-11-24T00:47:43;4.60;99.90
40151;DHT22;25866;52.420;10.640;2022-11-24T00:50:09;4.60;99.90
40151;DHT22;25866;52.420;10.640;2022-11-24T00:52:34;4.60;99.90
40151;DHT22;25866;52.420;10.640;2022-11-24T00:55:00;4.60;99.90
40151;DHT22;25866;52.420;10.640;2022-11-24T00:57:26;4.60;99.90
40151;DHT22;25866;52.420;10.640;2022-11-24T01:02:35;4.50;99.90
40151;DHT22;25866;52.420;10.640;2022-11-24T01:05:01;4.50;99.90
40151;DHT22;25866;52.420;10.640;2022-11-24T01:07:27;4.50;99.90
40151;DHT22;25866;52.420;10.640;2022-11-24T01:09:53;4.50;99.90
40151;DHT22;25866;52.420;10.640;2022-11-24T01:12:18;4.60;99.90
40151;DHT22;25866;52.420;10.640;2022-11-24T01:14:44;4.60;99.90
40151;DHT22;25866;52.420;10.640;2022-11-24T01:17:10;4.60;99.90
40151;DHT22;25866;52.420;10.640;2022-11-24T01:19:36;4.60;99.90
40151;DHT22;25866;52.420;10.640;2022-11-24T01:22:01;4.60;99.90
40151;DHT22;25866;52.420;10.640;2022-11-24T01:24:27;4.60;99.90
40151;DHT22;25866;52.420;10.640;2022-11-24T01:26:52;4.60;99.90
40151;DHT22;25866;52.420;10.640;2022-11-24T01:31:48;4.70;99.90
40151;DHT22;25866;52.420;10.640;2022-11-24T01:34:14;4.70;99.90
40151;DHT22;25866;52.420;10.640;2022-11-24T01:36:39;4.70;99.90
40151;DHT22;25866;52.420;10.640;2022-11-24T01:39:05;4.70;99.90
40151;DHT22;25866;52.420;10.640;2022-11-24T01:41:33;4.70;99.90
40151;DHT22;25866;52.420;10.640;2022-11-24T01:43:59;4.80;99.90
40151;DHT22;25866;52.420;10.640;2022-11-24T01:46:32;4.80;99.90
40151;DHT22;25866;52.420;10.640;2022-11-24T01:49:12;4.80;99.90
40151;DHT22;25866;52.420;10.640;2022-11-24T01:51:43;4.90;99.90
40151;DHT22;25866;52.420;10.640;2022-11-24T01:54:10;4.90;99.90
40151;DHT22;25866;52.420;10.640;2022-11-24T01:56:39;4.90;99.90
40151;DHT22;25866;52.420;10.640;2022-11-24T01:59:08;4.90;99.90
40151;DHT22;25866;52.420;10.640;2022-11-24T02:01:34;4.90;99.90
40151;DHT22;25866;52.420;10.640;2022-11-24T02:04:02;4.90;99.90
40151;DHT22;25866;52.420;10.640;2022-11-24T02:06:31;4.90;99.90
40151;DHT22;25866;52.420;10.640;2022-11-24T02:08:59;4.90;99.90
40151;DHT22;25866;52.420;10.640;2022-11-24T02:11:28;4.90;99.90
40151;DHT22;25866;52.420;10.640;2022-11-24T02:13:56;4.90;99.90
40151;DHT22;25866;52.420;10.640;2022-11-24T02:16:22;4.90;99.90
40151;DHT22;25866;52.420;10.640;2022-11-24T02:18:48;5.00;99.90
40151;DHT22;25866;52.420;10.640;2022-11-24T02:21:15;5.00;99.90
40151;DHT22;25866;52.420;10.640;2022-11-24T02:28:59;5.00;99.90
40151;DHT22;25866;52.420;10.640;2022-11-24T02:31:24;5.00;99.90
40151;DHT22;25866;52.420;10.640;2022-11-24T02:33:50;5.00;99.90
40151;DHT22;25866;52.420;10.640;2022-11-24T02:36:16;4.90;99.90
40151;DHT22;25866;52.420;10.640;2022-11-24T02:38:42;4.90;99.90
40151;DHT22;25866;52.420;10.640;2022-11-24T02:41:10;5.00;99.90
40151;DHT22;25866;52.420;10.640;2022-11-24T02:43:44;5.00;99.90
40151;DHT22;25866;52.420;10.640;2022-11-24T02:46:10;4.90;99.90
40151;DHT22;25866;52.420;10.640;2022-11-24T02:48:37;4.90;99.90
40151;DHT22;25866;52.420;10.640;2022-11-24T02:51:03;4.90;99.90
40151;DHT22;25866;52.420;10.640;2022-11-24T02:53:29;5.00;99.90
40151;DHT22;25866;52.420;10.640;2022-11-24T02:55:55;5.00;99.90
40151;DHT22;25866;52.420;10.640;2022-11-24T02:58:21;5.00;99.90
40151;DHT22;25866;52.420;10.640;2022-11-24T03:00:47;5.00;99.90
40151;DHT22;25866;52.420;10.640;2022-11-24T03:03:13;5.00;99.90
40151;DHT22;25866;52.420;10.640;2022-11-24T03:05:38;4.90;99.90
40151;DHT22;25866;52.420;10.640;2022-11-24T03:08:04;4.90;99.90
40151;DHT22;25866;52.420;10.640;2022-11-24T03:10:30;4.90;99.90
40151;DHT22;25866;52.420;10.640;2022-11-24T03:12:56;5.00;99.90
40151;DHT22;25866;52.420;10.640;2022-11-24T03:15:22;5.00;99.90
40151;DHT22;25866;52.420;10.640;2022-11-24T03:17:49;5.10;99.90
40151;DHT22;25866;52.420;10.640;2022-11-24T03:20:15;5.10;99.90
40151;DHT22;25866;52.420;10.640;2022-11-24T03:22:41;5.20;99.90
40151;DHT22;25866;52.420;10.640;2022-11-24T03:25:07;5.20;99.90
40151;DHT22;25866;52.420;10.640;2022-11-24T03:27:33;5.30;99.90
40151;DHT22;25866;52.420;10.640;2022-11-24T03:29:58;5.30;99.90
40151;DHT22;25866;52.420;10.640;2022-11-24T03:32:24;5.30;99.90
40151;DHT22;25866;52.420;10.640;2022-11-24T03:34:50;5.30;99.90
40151;DHT22;25866;52.420;10.640;2022-11-24T03:37:15;5.30;99.90
40151;DHT22;25866;52.420;10.640;2022-11-24T03:39:41;5.30;99.90
40151;DHT22;25866;52.420;10.640;2022-11-24T03:42:07;5.30;99.90
40151;DHT22;25866;52.420;10.640;2022-11-24T03:44:33;5.40;99.90
40151;DHT22;25866;52.420;10.640;2022-11-24T03:46:58;5.40;99.90
40151;DHT22;25866;52.420;10.640;2022-11-24T03:49:24;5.40;99.90
40151;DHT22;25866;52.420;10.640;2022-11-24T03:51:50;5.40;99.90
40151;DHT22;25866;52.420;10.640;2022-11-24T03:54:15;5.40;99.90
40151;DHT22;25866;52.420;10.640;2022-11-24T03:56:41;5.30;99.90
40151;DHT22;25866;52.420;10.640;2022-11-24T03:59:07;5.40;99.90
40151;DHT22;25866;52.420;10.640;2022-11-24T04:01:33;5.40;99.90
40151;DHT22;25866;52.420;10.640;2022-11-24T04:03:59;5.40;99.90
40151;DHT22;25866;52.420;10.640;2022-11-24T04:06:24;5.40;99.90
40151;DHT22;25866;52.420;10.640;2022-11-24T04:08:50;5.40;99.90
40151;DHT22;25866;52.420;10.640;2022-11-24T04:11:16;5.40;99.90
40151;DHT22;25866;52.420;10.640;2022-11-24T04:14:00;5.50;99.90
40151;DHT22;25866;52.420;10.640;2022-11-24T04:16:26;5.50;99.90
40151;DHT22;25866;52.420;10.640;2022-11-24T04:18:52;5.50;99.90
40151;DHT22;25866;52.420;10.640;2022-11-24T04:21:19;5.50;99.90
40151;DHT22;25866;52.420;10.640;2022-11-24T04:23:46;5.50;99.90
40151;DHT22;25866;52.420;10.640;2022-11-24T04:26:12;5.50;99.90
40151;DHT22;25866;52.420;10.640;2022-11-24T04:28:37;5.50;99.90
40151;DHT22;25866;52.420;10.640;2022-11-24T04:31:04;5.50;99.90
40151;DHT22;25866;52.420;10.640;2022-11-24T04:33:30;5.50;99.90
40151;DHT22;25866;52.420;10.640;2022-11-24T04:35:56;5.60;99.90
40151;DHT22;25866;52.420;10.640;2022-11-24T04:38:21;5.60;99.90
40151;DHT22;25866;52.420;10.640;2022-11-24T04:40:47;5.60;99.90
40151;DHT22;25866;52.420;10.640;2022-11-24T04:43:13;5.70;99.90
40151;DHT22;25866;52.420;10.640;2022-11-24T04:45:40;5.70;99.90
40151;DHT22;25866;52.420;10.640;2022-11-24T04:48:06;5.70;99.90
40151;DHT22;25866;52.420;10.640;2022-11-24T04:50:31;5.60;99.90
40151;DHT22;25866;52.420;10.640;2022-11-24T04:52:57;5.60;99.90
40151;DHT22;25866;52.420;10.640;2022-11-24T04:55:23;5.60;99.90
40151;DHT22;25866;52.420;10.640;2022-11-24T04:57:49;5.60;99.90
40151;DHT22;25866;52.420;10.640;2022-11-24T05:00:14;5.60;99.90
40151;DHT22;25866;52.420;10.640;2022-11-24T05:02:40;5.60;99.90
40151;DHT22;25866;52.420;10.640;2022-11-24T05:05:06;5.60;99.90
40151;DHT22;25866;52.420;10.640;2022-11-24T05:07:32;5.70;99.90
40151;DHT22;25866;52.420;10.640;2022-11-24T05:09:59;5.80;99.90
40151;DHT22;25866;52.420;10.640;2022-11-24T05:12:43;5.70;99.90
40151;DHT22;25866;52.420;10.640;2022-11-24T05:15:09;5.70;99.90
40151;DHT22;25866;52.420;10.640;2022-11-24T05:17:37;5.70;99.90
40151;DHT22;25866;52.420;10.640;2022-11-24T05:20:04;5.80;99.90
40151;DHT22;25866;52.420;10.640;2022-11-24T05:22:30;5.90;99.90
40151;DHT22;25866;52.420;10.640;2022-11-24T05:24:56;5.90;99.90
40151;DHT22;25866;52.420;10.640;2022-11-24T05:27:22;5.90;99.90
40151;DHT22;25866;52.420;10.640;2022-11-24T05:29:48;6.00;99.90
40151;DHT22;25866;52.420;10.640;2022-11-24T05:32:13;6.00;99.90
40151;DHT22;25866;52.420;10.640;2022-11-24T05:34:39;6.00;99.90
40151;DHT22;25866;52.420;10.640;2022-11-24T05:37:05;6.00;99.90
40151;DHT22;25866;52.420;10.640;2022-11-24T05:39:32;6.00;99.90
40151;DHT22;25866;52.420;10.640;2022-11-24T05:41:58;6.00;99.90
40151;DHT22;25866;52.420;10.640;2022-11-24T05:44:23;6.00;99.90
40151;DHT22;25866;52.420;10.640;2022-11-24T05:46:49;6.00;99.90
40151;DHT22;25866;52.420;10.640;2022-11-24T05:49:15;6.10;99.90
40151;DHT22;25866;52.420;10.640;2022-11-24T05:51:41;6.10;99.90
40151;DHT22;25866;52.420;10.640;2022-11-24T05:54:06;6.00;99.90
40151;DHT22;25866;52.420;10.640;2022-11-24T05:56:32;6.00;99.90
40151;DHT22;25866;52.420;10.640;2022-11-24T05:58:58;6.10;99.90
40151;DHT22;25866;52.420;10.640;2022-11-24T06:01:23;6.20;99.90
40151;DHT22;25866;52.420;10.640;2022-11-24T06:03:50;6.20;99.90
40151;DHT22;25866;52.420;10.640;2022-11-24T06:06:16;6.20;99.90
40151;DHT22;25866;52.420;10.640;2022-11-24T06:08:42;6.30;99.90
40151;DHT22;25866;52.420;10.640;2022-11-24T06:11:08;6.30;99.90
40151;DHT22;25866;52.420;10.640;2022-11-24T06:13:43;6.30;99.90
40151;DHT22;25866;52.420;10.640;2022-11-24T06:16:10;6.20;99.90
40151;DHT22;25866;52.420;10.640;2022-11-24T06:18:36;6.20;99.90
40151;DHT22;25866;52.420;10.640;2022-11-24T06:21:02;6.20;99.90
40151;DHT22;25866;52.420;10.640;2022-11-24T06:23:28;6.10;99.90
40151;DHT22;25866;52.420;10.640;2022-11-24T06:25:57;6.10;99.90
40151;DHT22;25866;52.420;10.640;2022-11-24T06:28:23;6.00;99.90
40151;DHT22;25866;52.420;10.640;2022-11-24T06:30:49;6.10;99.90
40151;DHT22;25866;52.420;10.640;2022-11-24T06:33:14;6.00;99.90
40151;DHT22;25866;52.420;10.640;2022-11-24T06:35:40;6.00;99.90
40151;DHT22;25866;52.420;10.640;2022-11-24T06:38:07;6.00;99.90
40151;DHT22;25866;52.420;10.640;2022-11-24T06:40:33;6.00;99.90
40151;DHT22;25866;52.420;10.640;2022-11-24T06:42:58;6.00;99.90
40151;DHT22;25866;52.420;10.640;2022-11-24T06:45:24;6.00;99.90
40151;DHT22;25866;52.420;10.640;2022-11-24T06:47:53;6.00;99.90
40151;DHT22;25866;52.420;10.640;2022-11-24T06:50:19;6.00;99.90
40151;DHT22;25866;52.420;10.640;2022-11-24T06:52:44;6.00;99.90
40151;DHT22;25866;52.420;10.640;2022-11-24T06:55:10;5.90;99.90
40151;DHT22;25866;52.420;10.640;2022-11-24T06:57:36;5.90;99.90
40151;DHT22;25866;52.420;10.640;2022-11-24T07:00:04;5.90;99.90
40151;DHT22;25866;52.420;10.640;2022-11-24T07:02:30;5.90;99.90
40151;DHT22;25866;52.420;10.640;2022-11-24T07:04:56;6.00;99.90
40151;DHT22;25866;52.420;10.640;2022-11-24T07:07:21;6.00;99.90
40151;DHT22;25866;52.420;10.640;2022-11-24T07:09:47;6.00;99.90
40151;DHT22;25866;52.420;10.640;2022-11-24T07:12:13;6.00;99.90
40151;DHT22;25866;52.420;10.640;2022-11-24T07:14:38;5.90;99.90
40151;DHT22;25866;52.420;10.640;2022-11-24T07:17:04;5.90;99.90
40151;DHT22;25866;52.420;10.640;2022-11-24T07:19:30;6.00;99.90
40151;DHT22;25866;52.420;10.640;2022-11-24T07:21:56;5.90;99.90
40151;DHT22;25866;52.420;10.640;2022-11-24T07:24:21;6.00;99.90
40151;DHT22;25866;52.420;10.640;2022-11-24T07:26:47;6.00;99.90
40151;DHT22;25866;52.420;10.640;2022-11-24T07:29:13;6.00;99.90
40151;DHT22;25866;52.420;10.640;2022-11-24T07:31:39;6.00;99.90
40151;DHT22;25866;52.420;10.640;2022-11-24T07:34:05;6.10;99.90
40151;DHT22;25866;52.420;10.640;2022-11-24T07:36:30;6.10;99.90
40151;DHT22;25866;52.420;10.640;2022-11-24T07:38:56;6.10;99.90
40151;DHT22;25866;52.420;10.640;2022-11-24T07:41:22;6.10;99.90
40151;DHT22;25866;52.420;10.640;2022-11-24T07:43:48;6.20;99.90
40151;DHT22;25866;52.420;10.640;2022-11-24T07:46:17;6.20;99.90
40151;DHT22;25866;52.420;10.640;2022-11-24T07:48:44;6.20;99.90
40151;DHT22;25866;52.420;10.640;2022-11-24T07:51:10;6.30;99.90
40151;DHT22;25866;52.420;10.640;2022-11-24T07:53:36;6.30;99.90
40151;DHT22;25866;52.420;10.640;2022-11-24T07:56:03;6.40;99.90
40151;DHT22;25866;52.420;10.640;2022-11-24T07:58:32;6.40;99.90
40151;DHT22;25866;52.420;10.640;2022-11-24T08:00:59;6.50;99.90
40151;DHT22;25866;52.420;10.640;2022-11-24T08:03:25;6.50;99.90
40151;DHT22;25866;52.420;10.640;2022-11-24T08:05:58;6.60;99.90
40151;DHT22;25866;52.420;10.640;2022-11-24T08:08:24;6.60;99.90
40151;DHT22;25866;52.420;10.640;2022-11-24T08:10:50;6.70;99.90
40151;DHT22;25866;52.420;10.640;2022-11-24T08:13:17;6.80;99.90
40151;DHT22;25866;52.420;10.640;2022-11-24T08:15:42;6.90;99.90
40151;DHT22;25866;52.420;10.640;2022-11-24T08:18:08;6.90;99.90
40151;DHT22;25866;52.420;10.640;2022-11-24T08:20:34;6.90;99.90
40151;DHT22;25866;52.420;10.640;2022-11-24T08:23:00;6.90;99.90
40151;DHT22;25866;52.420;10.640;2022-11-24T08:25:26;6.90;99.90
40151;DHT22;25866;52.420;10.640;2022-11-24T08:28:00;6.90;99.90
40151;DHT22;25866;52.420;10.640;2022-11-24T08:30:26;6.90;99.90
40151;DHT22;25866;52.420;10.640;2022-11-24T08:32:53;6.90;99.90
40151;DHT22;25866;52.420;10.640;2022-11-24T08:35:18;6.80;99.90
40151;DHT22;25866;52.420;10.640;2022-11-24T08:37:44;6.80;99.90
40151;DHT22;25866;52.420;10.640;2022-11-24T08:40:10;6.80;99.90
40151;DHT22;25866;52.420;10.640;2022-11-24T08:42:36;6.80;99.90
40151;DHT22;25866;52.420;10.640;2022-11-24T08:45:03;6.80;99.90
40151;DHT22;25866;52.420;10.640;2022-11-24T08:47:29;7.00;99.90
40151;DHT22;25866;52.420;10.640;2022-11-24T08:49:55;7.00;99.90
40151;DHT22;25866;52.420;10.640;2022-11-24T08:52:20;7.10;99.90
40151;DHT22;25866;52.420;10.640;2022-11-24T08:54:46;7.00;99.90
40151;DHT22;25866;52.420;10.640;2022-11-24T08:57:15;7.10;99.90
40151;DHT22;25866;52.420;10.640;2022-11-24T08:59:41;7.00;99.90
40151;DHT22;25866;52.420;10.640;2022-11-24T09:02:10;7.10;99.90
40151;DHT22;25866;52.420;10.640;2022-11-24T09:04:36;7.10;99.90
40151;DHT22;25866;52.420;10.640;2022-11-24T09:07:02;7.10;99.90
40151;DHT22;25866;52.420;10.640;2022-11-24T09:09:28;7.20;99.90
40151;DHT22;25866;52.420;10.640;2022-11-24T09:11:54;7.20;99.90
40151;DHT22;25866;52.420;10.640;2022-11-24T09:14:19;7.20;99.90
40151;DHT22;25866;52.420;10.640;2022-11-24T09:16:45;7.20;99.90
40151;DHT22;25866;52.420;10.640;2022-11-24T09:19:11;7.20;99.90
40151;DHT22;25866;52.420;10.640;2022-11-24T09:21:36;7.10;99.90
40151;DHT22;25866;52.420;10.640;2022-11-24T09:24:06;7.20;99.90
40151;DHT22;25866;52.420;10.640;2022-11-24T09:26:35;7.20;99.90
40151;DHT22;25866;52.420;10.640;2022-11-24T09:29:02;7.30;99.90
40151;DHT22;25866;52.420;10.640;2022-11-24T09:31:32;7.30;99.90
40151;DHT22;25866;52.420;10.640;2022-11-24T09:33:58;7.40;99.90
40151;DHT22;25866;52.420;10.640;2022-11-24T09:36:25;7.40;99.90
40151;DHT22;25866;52.420;10.640;2022-11-24T09:38:50;7.50;99.90
40151;DHT22;25866;52.420;10.640;2022-11-24T09:50:12;7.60;99.90
40151;DHT22;25866;52.420;10.640;2022-11-24T09:55:04;7.60;99.90
40151;DHT22;25866;52.420;10.640;2022-11-24T09:57:37;7.60;99.90
40151;DHT22;25866;52.420;10.640;2022-11-24T10:00:11;7.60;99.90
40151;DHT22;25866;52.420;10.640;2022-11-24T10:02:37;7.70;99.90
40151;DHT22;25866;52.420;10.640;2022-11-24T10:05:04;7.70;99.90
40151;DHT22;25866;52.420;10.640;2022-11-24T10:07:44;7.80;99.90
40151;DHT22;25866;52.420;10.640;2022-11-24T10:10:19;7.90;99.90
40151;DHT22;25866;52.420;10.640;2022-11-24T10:13:11;8.00;99.90
40151;DHT22;25866;52.420;10.640;2022-11-24T10:21:33;8.10;99.90
40151;DHT22;25866;52.420;10.640;2022-11-24T10:26:50;8.20;99.90
40151;DHT22;25866;52.420;10.640;2022-11-24T10:29:19;8.40;99.90
40151;DHT22;25866;52.420;10.640;2022-11-24T10:31:51;8.40;99.90
40151;DHT22;25866;52.420;10.640;2022-11-24T10:34:36;8.50;99.90
40151;DHT22;25866;52.420;10.640;2022-11-24T10:39:40;8.60;99.90
40151;DHT22;25866;52.420;10.640;2022-11-24T10:42:25;8.60;99.90
40151;DHT22;25866;52.420;10.640;2022-11-24T10:45:10;8.70;99.90
40151;DHT22;25866;52.420;10.640;2022-11-24T10:47:37;8.80;99.90
40151;DHT22;25866;52.420;10.640;2022-11-24T10:50:23;8.70;99.90
40151;DHT22;25866;52.420;10.640;2022-11-24T11:00:55;9.10;99.90
40151;DHT22;25866;52.420;10.640;2022-11-24T11:03:26;9.10;99.90
40151;DHT22;25866;52.420;10.640;2022-11-24T11:06:04;9.00;99.90
40151;DHT22;25866;52.420;10.640;2022-11-24T11:08:33;9.10;99.90
40151;DHT22;25866;52.420;10.640;2022-11-24T11:13:55;9.00;99.90
40151;DHT22;25866;52.420;10.640;2022-11-24T11:18:52;9.10;99.90
40151;DHT22;25866;52.420;10.640;2022-11-24T11:21:32;9.10;99.90
40151;DHT22;25866;52.420;10.640;2022-11-24T11:23:59;9.10;99.90
40151;DHT22;25866;52.420;10.640;2022-11-24T11:31:34;9.40;99.90
40151;DHT22;25866;52.420;10.640;2022-11-24T11:36:40;9.50;99.90
40151;DHT22;25866;52.420;10.640;2022-11-24T11:39:08;9.60;99.90
40151;DHT22;25866;52.420;10.640;2022-11-24T11:41:42;9.50;99.90
40151;DHT22;25866;52.420;10.640;2022-11-24T11:44:21;9.40;99.90
40151;DHT22;25866;52.420;10.640;2022-11-24T11:46:50;9.40;99.90
40151;DHT22;25866;52.420;10.640;2022-11-24T11:49:16;9.30;99.90
40151;DHT22;25866;52.420;10.640;2022-11-24T11:52:03;9.30;99.90
40151;DHT22;25866;52.420;10.640;2022-11-24T12:10:49;9.40;99.90
40151;DHT22;25866;52.420;10.640;2022-11-24T12:15:52;9.50;99.90
40151;DHT22;25866;52.420;10.640;2022-11-24T12:18:55;9.60;99.90
40151;DHT22;25866;52.420;10.640;2022-11-24T12:21:48;9.70;99.90
40151;DHT22;25866;52.420;10.640;2022-11-24T12:30:10;10.00;99.90
40151;DHT22;25866;52.420;10.640;2022-11-24T12:38:30;9.90;99.90
40151;DHT22;25866;52.420;10.640;2022-11-24T12:43:35;9.90;99.90
40151;DHT22;25866;52.420;10.640;2022-11-24T12:49:36;10.00;99.90
40151;DHT22;25866;52.420;10.640;2022-11-24T12:52:40;9.90;99.90
40151;DHT22;25866;52.420;10.640;2022-11-24T12:55:17;9.90;99.90
40151;DHT22;25866;52.420;10.640;2022-11-24T13:00:15;9.80;99.90
40151;DHT22;25866;52.420;10.640;2022-11-24T13:05:58;9.60;99.90
40151;DHT22;25866;52.420;10.640;2022-11-24T13:08:26;9.40;99.90
40151;DHT22;25866;52.420;10.640;2022-11-24T13:10:52;9.30;99.90
40151;DHT22;25866;52.420;10.640;2022-11-24T13:13:18;9.20;99.90
40151;DHT22;25866;52.420;10.640;2022-11-24T13:21:45;9.30;99.90
40151;DHT22;25866;52.420;10.640;2022-11-24T13:53:44;9.10;99.90
40151;DHT22;25866;52.420;10.640;2022-11-24T13:59:00;9.20;99.90
40151;DHT22;25866;52.420;10.640;2022-11-24T14:01:35;9.20;99.90
40151;DHT22;25866;52.420;10.640;2022-11-24T14:12:22;9.10;99.90
40151;DHT22;25866;52.420;10.640;2022-11-24T14:14:50;9.10;99.90
40151;DHT22;25866;52.420;10.640;2022-11-24T14:19:47;9.10;99.90
40151;DHT22;25866;52.420;10.640;2022-11-24T14:22:29;9.10;99.90
40151;DHT22;25866;52.420;10.640;2022-11-24T14:24:59;9.10;99.90
40151;DHT22;25866;52.420;10.640;2022-11-24T14:27:37;9.10;99.90
40151;DHT22;25866;52.420;10.640;2022-11-24T14:32:37;9.10;99.90
40151;DHT22;25866;52.420;10.640;2022-11-24T14:35:32;9.10;99.90
40151;DHT22;25866;52.420;10.640;2022-11-24T14:38:00;9.10;99.90
40151;DHT22;25866;52.420;10.640;2022-11-24T14:40:47;9.10;99.90
40151;DHT22;25866;52.420;10.640;2022-11-24T14:45:50;9.00;99.90
40151;DHT22;25866;52.420;10.640;2022-11-24T14:48:17;9.00;99.90
40151;DHT22;25866;52.420;10.640;2022-11-24T14:50:45;9.00;99.90
40151;DHT22;25866;52.420;10.640;2022-11-24T14:53:14;9.00;99.90
40151;DHT22;25866;52.420;10.640;2022-11-24T14:55:40;9.10;99.90
40151;DHT22;25866;52.420;10.640;2022-11-24T14:58:24;9.10;99.90
40151;DHT22;25866;52.420;10.640;2022-11-24T15:01:10;9.00;99.90
40151;DHT22;25866;52.420;10.640;2022-11-24T15:03:45;9.00;99.90
40151;DHT22;25866;52.420;10.640;2022-11-24T15:06:18;9.00;99.90
40151;DHT22;25866;52.420;10.640;2022-11-24T15:08:47;9.00;99.90
40151;DHT22;25866;52.420;10.640;2022-11-24T15:11:13;9.00;99.90
40151;DHT22;25866;52.420;10.640;2022-11-24T15:13:51;9.00;99.90
40151;DHT22;25866;52.420;10.640;2022-11-24T15:16:19;8.90;99.90
40151;DHT22;25866;52.420;10.640;2022-11-24T15:18:47;8.90;99.90
40151;DHT22;25866;52.420;10.640;2022-11-24T15:21:14;8.90;99.90
40151;DHT22;25866;52.420;10.640;2022-11-24T15:23:40;8.90;99.90
40151;DHT22;25866;52.420;10.640;2022-11-24T15:28:36;8.80;99.90
40151;DHT22;25866;52.420;10.640;2022-11-24T15:31:08;8.80;99.90
40151;DHT22;25866;52.420;10.640;2022-11-24T15:33:35;8.80;99.90
40151;DHT22;25866;52.420;10.640;2022-11-24T15:36:01;8.70;99.90
40151;DHT22;25866;52.420;10.640;2022-11-24T15:38:27;8.70;99.90
40151;DHT22;25866;52.420;10.640;2022-11-24T15:40:54;8.70;99.90
40151;DHT22;25866;52.420;10.640;2022-11-24T15:43:37;8.70;99.90
40151;DHT22;25866;52.420;10.640;2022-11-24T15:46:04;8.70;99.90
40151;DHT22;25866;52.420;10.640;2022-11-24T15:48:30;8.70;99.90
40151;DHT22;25866;52.420;10.640;2022-11-24T15:50:57;8.60;99.90
40151;DHT22;25866;52.420;10.640;2022-11-24T15:53:50;8.60;99.90
40151;DHT22;25866;52.420;10.640;2022-11-24T15:56:35;8.60;99.90
40151;DHT22;25866;52.420;10.640;2022-11-24T15:59:03;8.60;99.90
40151;DHT22;25866;52.420;10.640;2022-11-24T16:01:32;8.50;99.90
40151;DHT22;25866;52.420;10.640;2022-11-24T16:03:59;8.40;99.90
40151;DHT22;25866;52.420;10.640;2022-11-24T16:06:25;8.40;99.90
40151;DHT22;25866;52.420;10.640;2022-11-24T16:08:52;8.40;99.90
40151;DHT22;25866;52.420;10.640;2022-11-24T16:11:18;8.40;99.90
40151;DHT22;25866;52.420;10.640;2022-11-24T16:13:44;8.30;99.90
40151;DHT22;25866;52.420;10.640;2022-11-24T16:16:10;8.20;99.90
40151;DHT22;25866;52.420;10.640;2022-11-24T16:18:37;8.20;99.90
40151;DHT22;25866;52.420;10.640;2022-11-24T16:21:05;8.10;99.90
40151;DHT22;25866;52.420;10.640;2022-11-24T16:23:32;8.10;99.90
40151;DHT22;25866;52.420;10.640;2022-11-24T16:25:58;8.00;99.90
40151;DHT22;25866;52.420;10.640;2022-11-24T16:28:24;7.90;99.90
40151;DHT22;25866;52.420;10.640;2022-11-24T16:30:49;7.80;99.90
40151;DHT22;25866;52.420;10.640;2022-11-24T16:33:15;7.70;99.90
40151;DHT22;25866;52.420;10.640;2022-11-24T16:35:41;7.70;99.90
40151;DHT22;25866;52.420;10.640;2022-11-24T16:38:14;7.60;99.90
40151;DHT22;25866;52.420;10.640;2022-11-24T16:40:40;7.60;99.90
40151;DHT22;25866;52.420;10.640;2022-11-24T16:43:06;7.50;99.90
40151;DHT22;25866;52.420;10.640;2022-11-24T16:45:32;7.40;99.90
40151;DHT22;25866;52.420;10.640;2022-11-24T16:47:59;7.30;99.90
40151;DHT22;25866;52.420;10.640;2022-11-24T16:50:25;7.20;99.90
40151;DHT22;25866;52.420;10.640;2022-11-24T16:52:50;7.10;99.90
40151;DHT22;25866;52.420;10.640;2022-11-24T16:55:16;7.10;99.90
40151;DHT22;25866;52.420;10.640;2022-11-24T16:57:42;7.00;99.90
40151;DHT22;25866;52.420;10.640;2022-11-24T17:00:09;6.90;99.90
40151;DHT22;25866;52.420;10.640;2022-11-24T17:02:35;6.90;99.90
40151;DHT22;25866;52.420;10.640;2022-11-24T17:05:01;6.80;99.90
40151;DHT22;25866;52.420;10.640;2022-11-24T17:07:27;6.80;99.90
40151;DHT22;25866;52.420;10.640;2022-11-24T17:09:52;6.70;99.90
40151;DHT22;25866;52.420;10.640;2022-11-24T17:12:18;6.70;99.90
40151;DHT22;25866;52.420;10.640;2022-11-24T17:14:44;6.70;99.90
40151;DHT22;25866;52.420;10.640;2022-11-24T17:17:09;6.70;99.90
40151;DHT22;25866;52.420;10.640;2022-11-24T17:19:35;6.70;99.90
40151;DHT22;25866;52.420;10.640;2022-11-24T17:22:01;6.70;99.90
40151;DHT22;25866;52.420;10.640;2022-11-24T17:24:27;6.70;99.90
40151;DHT22;25866;52.420;10.640;2022-11-24T17:26:54;6.70;99.90
40151;DHT22;25866;52.420;10.640;2022-11-24T17:29:20;6.70;99.90
40151;DHT22;25866;52.420;10.640;2022-11-24T17:31:45;6.70;99.90
40151;DHT22;25866;52.420;10.640;2022-11-24T17:34:12;6.60;99.90
40151;DHT22;25866;52.420;10.640;2022-11-24T17:36:38;6.60;99.90
40151;DHT22;25866;52.420;10.640;2022-11-24T17:39:09;6.60;99.90
40151;DHT22;25866;52.420;10.640;2022-11-24T17:41:35;6.60;99.90
40151;DHT22;25866;52.420;10.640;2022-11-24T17:44:01;6.70;99.90
40151;DHT22;25866;52.420;10.640;2022-11-24T17:46:28;6.70;99.90
40151;DHT22;25866;52.420;10.640;2022-11-24T17:48:54;6.70;99.90
40151;DHT22;25866;52.420;10.640;2022-11-24T17:51:22;6.60;99.90
40151;DHT22;25866;52.420;10.640;2022-11-24T17:53:51;6.70;99.90
40151;DHT22;25866;52.420;10.640;2022-11-24T17:56:19;6.70;99.90
40151;DHT22;25866;52.420;10.640;2022-11-24T17:58:50;6.70;99.90
40151;DHT22;25866;52.420;10.640;2022-11-24T18:01:17;6.70;99.90
40151;DHT22;25866;52.420;10.640;2022-11-24T18:03:43;6.70;99.90
40151;DHT22;25866;52.420;10.640;2022-11-24T18:06:10;6.70;99.90
40151;DHT22;25866;52.420;10.640;2022-11-24T18:08:38;6.80;99.90
40151;DHT22;25866;52.420;10.640;2022-11-24T18:11:06;6.80;99.90